sensor_id;sensor_type;location;lat;lon;timestamp;P1;durP1;ratioP1;P2;durP2;ratioP2
57441;SDS011;43284;47.042;15.498;2022-07-29T00:01:19;9.88;;;4.68;;
57441;SDS011;43284;47.042;15.498;2022-07-29T00:03:47;6.32;;;4.38;;
57441;SDS011;43284;47.042;15.498;2022-07-29T00:06:14;5.88;;;4.30;;
57441;SDS011;43284;47.042;15.498;2022-07-29T00:08:42;6.07;;;4.63;;
57441;SDS011;43284;47.042;15.498;2022-07-29T00:11:09;7.95;;;4.15;;
57441;SDS011;43284;47.042;15.498;2022-07-29T00:13:36;8.32;;;5.18;;
57441;SDS011;43284;47.042;15.498;2022-07-29T00:16:05;8.75;;;4.53;;
57441;SDS011;43284;47.042;15.498;2022-07-29T00:18:32;6.07;;;4.65;;
57441;SDS011;43284;47.042;15.498;2022-07-29T00:21:02;7.45;;;4.60;;
57441;SDS011;43284;47.042;15.498;2022-07-29T00:23:30;7.88;;;4.93;;
57441;SDS011;43284;47.042;15.498;2022-07-29T00:25:57;8.35;;;5.53;;
57441;SDS011;43284;47.042;15.498;2022-07-29T00:28:24;6.90;;;4.63;;
57441;SDS011;43284;47.042;15.498;2022-07-29T00:30:51;6.80;;;4.60;;
57441;SDS011;43284;47.042;15.498;2022-07-29T00:33:21;6.40;;;4.70;;
57441;SDS011;43284;47.042;15.498;2022-07-29T00:35:49;6.30;;;4.47;;
57441;SDS011;43284;47.042;15.498;2022-07-29T00:38:17;12.13;;;5.28;;
57441;SDS011;43284;47.042;15.498;2022-07-29T00:40:45;7.90;;;4.75;;
57441;SDS011;43284;47.042;15.498;2022-07-29T00:43:13;5.97;;;4.78;;
57441;SDS011;43284;47.042;15.498;2022-07-29T00:45:42;6.93;;;4.50;;
57441;SDS011;43284;47.042;15.498;2022-07-29T00:48:09;8.50;;;4.60;;
57441;SDS011;43284;47.042;15.498;2022-07-29T00:50:38;10.55;;;5.00;;
57441;SDS011;43284;47.042;15.498;2022-07-29T00:53:08;6.65;;;4.70;;
57441;SDS011;43284;47.042;15.498;2022-07-29T00:55:38;6.25;;;4.75;;
57441;SDS011;43284;47.042;15.498;2022-07-29T00:58:05;7.32;;;5.20;;
57441;SDS011;43284;47.042;15.498;2022-07-29T01:00:34;10.20;;;5.05;;
57441;SDS011;43284;47.042;15.498;2022-07-29T01:03:02;9.65;;;5.03;;
57441;SDS011;43284;47.042;15.498;2022-07-29T01:05:30;6.50;;;5.10;;
57441;SDS011;43284;47.042;15.498;2022-07-29T01:07:58;7.15;;;5.20;;
57441;SDS011;43284;47.042;15.498;2022-07-29T01:10:27;6.38;;;4.70;;
57441;SDS011;43284;47.042;15.498;2022-07-29T01:12:56;7.70;;;5.13;;
57441;SDS011;43284;47.042;15.498;2022-07-29T01:15:25;5.90;;;5.30;;
57441;SDS011;43284;47.042;15.498;2022-07-29T01:23:40;7.50;;;5.35;;
57441;SDS011;43284;47.042;15.498;2022-07-29T01:26:41;14.02;;;5.30;;
57441;SDS011;43284;47.042;15.498;2022-07-29T01:34:33;8.48;;;5.38;;
57441;SDS011;43284;47.042;15.498;2022-07-29T01:39:37;7.57;;;5.30;;
57441;SDS011;43284;47.042;15.498;2022-07-29T01:44:46;6.40;;;5.07;;
57441;SDS011;43284;47.042;15.498;2022-07-29T01:48:02;12.40;;;5.28;;
57441;SDS011;43284;47.042;15.498;2022-07-29T01:56:42;6.63;;;5.25;;
57441;SDS011;43284;47.042;15.498;2022-07-29T01:59:11;7.85;;;5.15;;
57441;SDS011;43284;47.042;15.498;2022-07-29T02:01:40;7.15;;;5.15;;
57441;SDS011;43284;47.042;15.498;2022-07-29T02:04:12;7.38;;;5.10;;
57441;SDS011;43284;47.042;15.498;2022-07-29T02:06:41;6.97;;;5.28;;
57441;SDS011;43284;47.042;15.498;2022-07-29T02:09:11;8.00;;;5.45;;
57441;SDS011;43284;47.042;15.498;2022-07-29T02:11:40;7.78;;;5.20;;
57441;SDS011;43284;47.042;15.498;2022-07-29T02:14:17;6.45;;;5.32;;
57441;SDS011;43284;47.042;15.498;2022-07-29T02:16:47;6.65;;;5.55;;
57441;SDS011;43284;47.042;15.498;2022-07-29T02:19:19;29.02;;;7.28;;
57441;SDS011;43284;47.042;15.498;2022-07-29T02:21:50;8.07;;;5.22;;
57441;SDS011;43284;47.042;15.498;2022-07-29T02:24:19;8.90;;;5.40;;
57441;SDS011;43284;47.042;15.498;2022-07-29T02:26:50;8.85;;;6.03;;
57441;SDS011;43284;47.042;15.498;2022-07-29T02:29:25;10.15;;;5.93;;
57441;SDS011;43284;47.042;15.498;2022-07-29T02:31:54;8.65;;;5.78;;
57441;SDS011;43284;47.042;15.498;2022-07-29T02:34:25;9.65;;;5.25;;
57441;SDS011;43284;47.042;15.498;2022-07-29T02:36:54;6.70;;;5.55;;
57441;SDS011;43284;47.042;15.498;2022-07-29T02:39:22;9.18;;;5.45;;
57441;SDS011;43284;47.042;15.498;2022-07-29T02:42:00;7.22;;;5.38;;
57441;SDS011;43284;47.042;15.498;2022-07-29T02:44:32;9.40;;;5.72;;
57441;SDS011;43284;47.042;15.498;2022-07-29T02:52:26;7.68;;;5.60;;
57441;SDS011;43284;47.042;15.498;2022-07-29T02:55:04;8.18;;;5.13;;
57441;SDS011;43284;47.042;15.498;2022-07-29T02:57:36;6.65;;;5.13;;
57441;SDS011;43284;47.042;15.498;2022-07-29T03:00:18;8.45;;;6.15;;
57441;SDS011;43284;47.042;15.498;2022-07-29T03:02:47;10.95;;;5.43;;
57441;SDS011;43284;47.042;15.498;2022-07-29T03:05:20;6.88;;;6.00;;
57441;SDS011;43284;47.042;15.498;2022-07-29T03:07:51;7.72;;;5.60;;
57441;SDS011;43284;47.042;15.498;2022-07-29T03:10:25;7.28;;;6.10;;
57441;SDS011;43284;47.042;15.498;2022-07-29T03:12:56;9.23;;;5.68;;
57441;SDS011;43284;47.042;15.498;2022-07-29T03:15:25;7.30;;;5.60;;
57441;SDS011;43284;47.042;15.498;2022-07-29T03:17:53;9.07;;;5.63;;
57441;SDS011;43284;47.042;15.498;2022-07-29T03:20:21;7.50;;;5.65;;
57441;SDS011;43284;47.042;15.498;2022-07-29T03:22:48;7.50;;;5.53;;
57441;SDS011;43284;47.042;15.498;2022-07-29T03:25:17;7.05;;;6.10;;
57441;SDS011;43284;47.042;15.498;2022-07-29T03:27:47;10.25;;;5.78;;
57441;SDS011;43284;47.042;15.498;2022-07-29T03:30:15;9.45;;;6.00;;
57441;SDS011;43284;47.042;15.498;2022-07-29T03:32:42;9.15;;;6.40;;
57441;SDS011;43284;47.042;15.498;2022-07-29T03:35:10;7.03;;;5.63;;
57441;SDS011;43284;47.042;15.498;2022-07-29T03:37:37;8.50;;;5.80;;
57441;SDS011;43284;47.042;15.498;2022-07-29T03:40:05;8.35;;;5.65;;
57441;SDS011;43284;47.042;15.498;2022-07-29T03:42:37;9.75;;;6.28;;
57441;SDS011;43284;47.042;15.498;2022-07-29T03:45:10;12.20;;;6.47;;
57441;SDS011;43284;47.042;15.498;2022-07-29T03:47:42;7.88;;;5.82;;
57441;SDS011;43284;47.042;15.498;2022-07-29T03:50:16;7.05;;;5.45;;
57441;SDS011;43284;47.042;15.498;2022-07-29T03:52:46;7.20;;;5.60;;
57441;SDS011;43284;47.042;15.498;2022-07-29T03:55:14;8.25;;;6.18;;
57441;SDS011;43284;47.042;15.498;2022-07-29T03:57:44;10.50;;;6.03;;
57441;SDS011;43284;47.042;15.498;2022-07-29T04:00:14;8.15;;;5.70;;
57441;SDS011;43284;47.042;15.498;2022-07-29T04:02:43;8.75;;;6.18;;
57441;SDS011;43284;47.042;15.498;2022-07-29T04:05:15;8.13;;;6.55;;
57441;SDS011;43284;47.042;15.498;2022-07-29T04:07:44;11.23;;;6.50;;
57441;SDS011;43284;47.042;15.498;2022-07-29T04:10:12;8.27;;;6.07;;
57441;SDS011;43284;47.042;15.498;2022-07-29T04:12:41;11.13;;;6.38;;
57441;SDS011;43284;47.042;15.498;2022-07-29T04:15:08;9.85;;;6.05;;
57441;SDS011;43284;47.042;15.498;2022-07-29T04:17:36;10.18;;;6.72;;
57441;SDS011;43284;47.042;15.498;2022-07-29T04:20:04;7.65;;;5.82;;
57441;SDS011;43284;47.042;15.498;2022-07-29T04:22:33;10.98;;;6.90;;
57441;SDS011;43284;47.042;15.498;2022-07-29T04:25:00;6.97;;;5.72;;
57441;SDS011;43284;47.042;15.498;2022-07-29T04:27:27;9.63;;;6.30;;
57441;SDS011;43284;47.042;15.498;2022-07-29T04:29:56;9.00;;;6.55;;
57441;SDS011;43284;47.042;15.498;2022-07-29T04:32:23;9.30;;;6.65;;
57441;SDS011;43284;47.042;15.498;2022-07-29T04:34:51;7.97;;;6.43;;
57441;SDS011;43284;47.042;15.498;2022-07-29T04:37:18;10.07;;;6.82;;
57441;SDS011;43284;47.042;15.498;2022-07-29T04:39:46;14.70;;;6.88;;
57441;SDS011;43284;47.042;15.498;2022-07-29T04:42:14;10.05;;;7.00;;
57441;SDS011;43284;47.042;15.498;2022-07-29T04:44:41;10.15;;;6.72;;
57441;SDS011;43284;47.042;15.498;2022-07-29T04:47:09;10.55;;;7.03;;
57441;SDS011;43284;47.042;15.498;2022-07-29T04:49:39;10.55;;;7.30;;
57441;SDS011;43284;47.042;15.498;2022-07-29T04:52:07;10.88;;;7.10;;
57441;SDS011;43284;47.042;15.498;2022-07-29T04:54:35;14.20;;;8.23;;
57441;SDS011;43284;47.042;15.498;2022-07-29T04:57:02;10.00;;;6.50;;
57441;SDS011;43284;47.042;15.498;2022-07-29T04:59:30;9.13;;;6.57;;
57441;SDS011;43284;47.042;15.498;2022-07-29T05:01:58;8.90;;;6.82;;
57441;SDS011;43284;47.042;15.498;2022-07-29T05:04:26;10.40;;;7.57;;
57441;SDS011;43284;47.042;15.498;2022-07-29T05:06:53;10.98;;;7.00;;
57441;SDS011;43284;47.042;15.498;2022-07-29T05:09:20;11.05;;;7.10;;
57441;SDS011;43284;47.042;15.498;2022-07-29T05:11:48;11.88;;;6.57;;
57441;SDS011;43284;47.042;15.498;2022-07-29T05:14:16;12.85;;;6.60;;
57441;SDS011;43284;47.042;15.498;2022-07-29T05:16:44;13.98;;;7.13;;
57441;SDS011;43284;47.042;15.498;2022-07-29T05:19:11;10.27;;;6.65;;
57441;SDS011;43284;47.042;15.498;2022-07-29T05:21:39;7.75;;;6.35;;
57441;SDS011;43284;47.042;15.498;2022-07-29T05:24:06;9.57;;;6.88;;
57441;SDS011;43284;47.042;15.498;2022-07-29T05:26:35;12.18;;;7.22;;
57441;SDS011;43284;47.042;15.498;2022-07-29T05:29:04;13.02;;;6.78;;
57441;SDS011;43284;47.042;15.498;2022-07-29T05:31:31;9.73;;;6.95;;
57441;SDS011;43284;47.042;15.498;2022-07-29T05:33:59;10.02;;;7.03;;
57441;SDS011;43284;47.042;15.498;2022-07-29T05:36:27;12.52;;;6.88;;
57441;SDS011;43284;47.042;15.498;2022-07-29T05:38:55;11.60;;;7.03;;
57441;SDS011;43284;47.042;15.498;2022-07-29T05:41:23;10.18;;;7.00;;
57441;SDS011;43284;47.042;15.498;2022-07-29T05:43:50;10.38;;;6.88;;
57441;SDS011;43284;47.042;15.498;2022-07-29T05:46:18;11.85;;;7.00;;
57441;SDS011;43284;47.042;15.498;2022-07-29T05:48:45;8.70;;;6.63;;
57441;SDS011;43284;47.042;15.498;2022-07-29T05:51:14;11.32;;;6.68;;
57441;SDS011;43284;47.042;15.498;2022-07-29T05:53:41;14.30;;;7.13;;
57441;SDS011;43284;47.042;15.498;2022-07-29T05:56:12;11.48;;;7.38;;
57441;SDS011;43284;47.042;15.498;2022-07-29T05:58:39;9.15;;;7.30;;
57441;SDS011;43284;47.042;15.498;2022-07-29T06:01:08;10.18;;;6.55;;
57441;SDS011;43284;47.042;15.498;2022-07-29T06:03:37;8.38;;;6.45;;
57441;SDS011;43284;47.042;15.498;2022-07-29T06:06:04;12.00;;;7.05;;
57441;SDS011;43284;47.042;15.498;2022-07-29T06:08:33;10.10;;;7.07;;
57441;SDS011;43284;47.042;15.498;2022-07-29T06:11:02;10.95;;;6.40;;
57441;SDS011;43284;47.042;15.498;2022-07-29T06:13:31;9.98;;;6.57;;
57441;SDS011;43284;47.042;15.498;2022-07-29T06:15:58;9.32;;;6.53;;
57441;SDS011;43284;47.042;15.498;2022-07-29T06:18:26;10.45;;;6.35;;
57441;SDS011;43284;47.042;15.498;2022-07-29T06:20:54;9.52;;;6.05;;
57441;SDS011;43284;47.042;15.498;2022-07-29T06:23:24;11.20;;;6.30;;
57441;SDS011;43284;47.042;15.498;2022-07-29T06:25:51;9.35;;;7.22;;
57441;SDS011;43284;47.042;15.498;2022-07-29T06:28:19;8.35;;;5.97;;
57441;SDS011;43284;47.042;15.498;2022-07-29T06:30:47;9.07;;;5.93;;
57441;SDS011;43284;47.042;15.498;2022-07-29T06:33:18;8.57;;;6.45;;
57441;SDS011;43284;47.042;15.498;2022-07-29T06:35:45;7.97;;;6.25;;
57441;SDS011;43284;47.042;15.498;2022-07-29T06:38:13;10.73;;;6.35;;
57441;SDS011;43284;47.042;15.498;2022-07-29T06:40:44;10.25;;;6.40;;
57441;SDS011;43284;47.042;15.498;2022-07-29T06:43:31;8.07;;;5.63;;
57441;SDS011;43284;47.042;15.498;2022-07-29T06:46:10;9.68;;;6.00;;
57441;SDS011;43284;47.042;15.498;2022-07-29T06:48:40;11.10;;;6.82;;
57441;SDS011;43284;47.042;15.498;2022-07-29T06:51:08;6.60;;;5.53;;
57441;SDS011;43284;47.042;15.498;2022-07-29T06:53:38;11.18;;;5.93;;
57441;SDS011;43284;47.042;15.498;2022-07-29T06:56:06;10.25;;;5.97;;
57441;SDS011;43284;47.042;15.498;2022-07-29T06:58:35;9.80;;;6.15;;
57441;SDS011;43284;47.042;15.498;2022-07-29T07:01:04;10.77;;;5.93;;
57441;SDS011;43284;47.042;15.498;2022-07-29T07:03:32;9.35;;;5.72;;
57441;SDS011;43284;47.042;15.498;2022-07-29T07:06:00;9.40;;;6.00;;
57441;SDS011;43284;47.042;15.498;2022-07-29T07:08:28;7.72;;;4.88;;
57441;SDS011;43284;47.042;15.498;2022-07-29T07:10:56;13.30;;;6.60;;
57441;SDS011;43284;47.042;15.498;2022-07-29T07:13:23;8.20;;;5.80;;
57441;SDS011;43284;47.042;15.498;2022-07-29T07:15:52;6.88;;;5.15;;
57441;SDS011;43284;47.042;15.498;2022-07-29T07:18:21;6.28;;;5.40;;
57441;SDS011;43284;47.042;15.498;2022-07-29T07:20:49;14.35;;;7.38;;
57441;SDS011;43284;47.042;15.498;2022-07-29T07:23:16;6.85;;;4.63;;
57441;SDS011;43284;47.042;15.498;2022-07-29T07:25:44;8.35;;;5.00;;
57441;SDS011;43284;47.042;15.498;2022-07-29T07:28:11;8.95;;;5.05;;
57441;SDS011;43284;47.042;15.498;2022-07-29T07:30:39;9.80;;;5.40;;
57441;SDS011;43284;47.042;15.498;2022-07-29T07:33:06;7.65;;;5.10;;
57441;SDS011;43284;47.042;15.498;2022-07-29T07:35:33;9.13;;;4.65;;
57441;SDS011;43284;47.042;15.498;2022-07-29T07:38:02;9.73;;;5.20;;
57441;SDS011;43284;47.042;15.498;2022-07-29T07:40:31;7.10;;;5.10;;
57441;SDS011;43284;47.042;15.498;2022-07-29T07:43:01;9.55;;;4.72;;
57441;SDS011;43284;47.042;15.498;2022-07-29T07:45:29;10.02;;;5.57;;
57441;SDS011;43284;47.042;15.498;2022-07-29T07:48:01;6.63;;;4.93;;
57441;SDS011;43284;47.042;15.498;2022-07-29T07:50:31;11.95;;;5.32;;
57441;SDS011;43284;47.042;15.498;2022-07-29T07:53:01;8.38;;;5.57;;
57441;SDS011;43284;47.042;15.498;2022-07-29T07:55:29;8.02;;;4.90;;
57441;SDS011;43284;47.042;15.498;2022-07-29T07:57:57;7.18;;;5.03;;
57441;SDS011;43284;47.042;15.498;2022-07-29T08:00:26;6.85;;;5.75;;
57441;SDS011;43284;47.042;15.498;2022-07-29T08:02:58;7.30;;;5.20;;
57441;SDS011;43284;47.042;15.498;2022-07-29T08:05:27;6.97;;;4.72;;
57441;SDS011;43284;47.042;15.498;2022-07-29T08:07:55;8.52;;;5.30;;
57441;SDS011;43284;47.042;15.498;2022-07-29T08:10:22;10.23;;;4.68;;
57441;SDS011;43284;47.042;15.498;2022-07-29T08:13:08;9.70;;;5.10;;
57441;SDS011;43284;47.042;15.498;2022-07-29T08:15:38;6.63;;;4.63;;
57441;SDS011;43284;47.042;15.498;2022-07-29T08:18:07;5.60;;;4.60;;
57441;SDS011;43284;47.042;15.498;2022-07-29T08:20:36;7.22;;;4.43;;
57441;SDS011;43284;47.042;15.498;2022-07-29T08:23:05;6.43;;;4.35;;
57441;SDS011;43284;47.042;15.498;2022-07-29T08:28:05;4.90;;;3.78;;
57441;SDS011;43284;47.042;15.498;2022-07-29T08:30:35;4.65;;;3.67;;
57441;SDS011;43284;47.042;15.498;2022-07-29T08:33:04;8.13;;;4.20;;
57441;SDS011;43284;47.042;15.498;2022-07-29T08:35:34;11.45;;;4.00;;
57441;SDS011;43284;47.042;15.498;2022-07-29T08:38:02;7.32;;;3.65;;
57441;SDS011;43284;47.042;15.498;2022-07-29T08:40:36;7.60;;;4.05;;
57441;SDS011;43284;47.042;15.498;2022-07-29T08:43:13;6.88;;;3.92;;
57441;SDS011;43284;47.042;15.498;2022-07-29T08:45:48;9.00;;;3.72;;
57441;SDS011;43284;47.042;15.498;2022-07-29T08:48:21;3.40;;;2.92;;
57441;SDS011;43284;47.042;15.498;2022-07-29T08:50:55;10.52;;;4.00;;
57441;SDS011;43284;47.042;15.498;2022-07-29T08:53:24;5.13;;;3.20;;
57441;SDS011;43284;47.042;15.498;2022-07-29T08:55:53;4.13;;;3.35;;
57441;SDS011;43284;47.042;15.498;2022-07-29T08:58:20;6.18;;;3.50;;
57441;SDS011;43284;47.042;15.498;2022-07-29T09:00:52;6.18;;;3.63;;
57441;SDS011;43284;47.042;15.498;2022-07-29T09:03:25;8.40;;;3.35;;
57441;SDS011;43284;47.042;15.498;2022-07-29T09:05:58;5.10;;;3.13;;
57441;SDS011;43284;47.042;15.498;2022-07-29T09:08:26;5.10;;;3.55;;
57441;SDS011;43284;47.042;15.498;2022-07-29T09:10:54;14.18;;;4.43;;
57441;SDS011;43284;47.042;15.498;2022-07-29T09:13:23;6.25;;;3.72;;
57441;SDS011;43284;47.042;15.498;2022-07-29T09:15:52;6.13;;;3.72;;
57441;SDS011;43284;47.042;15.498;2022-07-29T09:18:56;4.15;;;3.25;;
57441;SDS011;43284;47.042;15.498;2022-07-29T09:21:17;7.60;;;3.60;;
57441;SDS011;43284;47.042;15.498;2022-07-29T09:24:07;4.20;;;3.28;;
57441;SDS011;43284;47.042;15.498;2022-07-29T09:26:42;6.40;;;3.65;;
57441;SDS011;43284;47.042;15.498;2022-07-29T09:31:45;5.10;;;3.40;;
57441;SDS011;43284;47.042;15.498;2022-07-29T09:34:16;7.38;;;3.92;;
57441;SDS011;43284;47.042;15.498;2022-07-29T09:36:50;5.38;;;3.90;;
57441;SDS011;43284;47.042;15.498;2022-07-29T09:39:35;5.07;;;3.88;;
57441;SDS011;43284;47.042;15.498;2022-07-29T09:42:11;7.28;;;4.20;;
57441;SDS011;43284;47.042;15.498;2022-07-29T09:44:41;5.55;;;3.97;;
57441;SDS011;43284;47.042;15.498;2022-07-29T09:47:10;8.23;;;4.55;;
57441;SDS011;43284;47.042;15.498;2022-07-29T09:49:54;6.18;;;4.10;;
57441;SDS011;43284;47.042;15.498;2022-07-29T09:52:26;8.48;;;4.38;;
57441;SDS011;43284;47.042;15.498;2022-07-29T09:55:06;6.10;;;4.65;;
57441;SDS011;43284;47.042;15.498;2022-07-29T09:57:39;6.28;;;4.20;;
57441;SDS011;43284;47.042;15.498;2022-07-29T10:00:14;7.38;;;5.55;;
57441;SDS011;43284;47.042;15.498;2022-07-29T10:02:45;4.60;;;4.10;;
57441;SDS011;43284;47.042;15.498;2022-07-29T10:05:31;5.47;;;4.55;;
57441;SDS011;43284;47.042;15.498;2022-07-29T10:07:58;5.53;;;4.13;;
57441;SDS011;43284;47.042;15.498;2022-07-29T10:10:29;7.05;;;4.03;;
57441;SDS011;43284;47.042;15.498;2022-07-29T10:13:00;5.63;;;3.90;;
57441;SDS011;43284;47.042;15.498;2022-07-29T10:15:39;7.15;;;4.10;;
57441;SDS011;43284;47.042;15.498;2022-07-29T10:18:11;5.72;;;3.88;;
57441;SDS011;43284;47.042;15.498;2022-07-29T10:20:40;9.65;;;4.10;;
57441;SDS011;43284;47.042;15.498;2022-07-29T10:23:08;7.43;;;3.95;;
57441;SDS011;43284;47.042;15.498;2022-07-29T10:25:37;5.38;;;3.97;;
57441;SDS011;43284;47.042;15.498;2022-07-29T10:28:06;5.38;;;3.63;;
57441;SDS011;43284;47.042;15.498;2022-07-29T10:30:35;6.18;;;4.15;;
57441;SDS011;43284;47.042;15.498;2022-07-29T10:41:42;7.05;;;3.80;;
57441;SDS011;43284;47.042;15.498;2022-07-29T10:44:29;7.22;;;4.20;;
57441;SDS011;43284;47.042;15.498;2022-07-29T10:46:59;11.15;;;4.10;;
57441;SDS011;43284;47.042;15.498;2022-07-29T10:49:28;4.93;;;3.83;;
57441;SDS011;43284;47.042;15.498;2022-07-29T10:52:04;4.95;;;3.78;;
57441;SDS011;43284;47.042;15.498;2022-07-29T10:54:39;10.15;;;4.38;;
57441;SDS011;43284;47.042;15.498;2022-07-29T11:05:10;5.30;;;3.40;;
57441;SDS011;43284;47.042;15.498;2022-07-29T11:10:44;5.05;;;3.60;;
57441;SDS011;43284;47.042;15.498;2022-07-29T11:13:13;6.32;;;3.65;;
57441;SDS011;43284;47.042;15.498;2022-07-29T11:16:09;7.20;;;3.88;;
57441;SDS011;43284;47.042;15.498;2022-07-29T11:21:43;5.05;;;3.22;;
57441;SDS011;43284;47.042;15.498;2022-07-29T11:24:20;5.60;;;3.70;;
57441;SDS011;43284;47.042;15.498;2022-07-29T11:29:52;8.20;;;3.80;;
57441;SDS011;43284;47.042;15.498;2022-07-29T11:32:21;5.93;;;3.70;;
57441;SDS011;43284;47.042;15.498;2022-07-29T11:38:22;3.90;;;2.90;;
57441;SDS011;43284;47.042;15.498;2022-07-29T11:43:46;8.13;;;4.75;;
57441;SDS011;43284;47.042;15.498;2022-07-29T11:46:35;5.97;;;4.07;;
57441;SDS011;43284;47.042;15.498;2022-07-29T11:49:23;9.90;;;3.85;;
57441;SDS011;43284;47.042;15.498;2022-07-29T11:51:57;8.20;;;3.70;;
57441;SDS011;43284;47.042;15.498;2022-07-29T11:54:30;6.30;;;3.70;;
57441;SDS011;43284;47.042;15.498;2022-07-29T11:57:01;5.40;;;3.45;;
57441;SDS011;43284;47.042;15.498;2022-07-29T11:59:28;5.18;;;3.58;;
57441;SDS011;43284;47.042;15.498;2022-07-29T12:01:58;13.85;;;4.25;;
57441;SDS011;43284;47.042;15.498;2022-07-29T12:04:27;11.88;;;3.88;;
57441;SDS011;43284;47.042;15.498;2022-07-29T12:06:59;8.57;;;3.92;;
57441;SDS011;43284;47.042;15.498;2022-07-29T12:09:27;13.07;;;5.18;;
57441;SDS011;43284;47.042;15.498;2022-07-29T12:11:58;6.30;;;3.85;;
57441;SDS011;43284;47.042;15.498;2022-07-29T12:14:26;4.13;;;3.67;;
57441;SDS011;43284;47.042;15.498;2022-07-29T12:16:55;5.63;;;3.63;;
57441;SDS011;43284;47.042;15.498;2022-07-29T12:19:24;7.85;;;3.33;;
57441;SDS011;43284;47.042;15.498;2022-07-29T12:21:54;6.30;;;3.58;;
57441;SDS011;43284;47.042;15.498;2022-07-29T12:24:24;7.32;;;3.83;;
57441;SDS011;43284;47.042;15.498;2022-07-29T12:26:53;6.10;;;3.90;;
57441;SDS011;43284;47.042;15.498;2022-07-29T12:29:22;4.93;;;3.78;;
57441;SDS011;43284;47.042;15.498;2022-07-29T12:31:53;5.47;;;3.35;;
57441;SDS011;43284;47.042;15.498;2022-07-29T12:34:22;5.70;;;3.63;;
57441;SDS011;43284;47.042;15.498;2022-07-29T12:36:52;7.13;;;4.03;;
57441;SDS011;43284;47.042;15.498;2022-07-29T12:39:22;6.95;;;4.40;;
57441;SDS011;43284;47.042;15.498;2022-07-29T12:44:20;9.15;;;4.35;;
57441;SDS011;43284;47.042;15.498;2022-07-29T12:47:01;10.43;;;3.90;;
57441;SDS011;43284;47.042;15.498;2022-07-29T12:49:29;5.70;;;3.88;;
57441;SDS011;43284;47.042;15.498;2022-07-29T12:51:57;6.38;;;4.00;;
57441;SDS011;43284;47.042;15.498;2022-07-29T12:54:23;10.88;;;3.75;;
57441;SDS011;43284;47.042;15.498;2022-07-29T12:56:57;6.07;;;3.65;;
57441;SDS011;43284;47.042;15.498;2022-07-29T12:59:26;7.32;;;3.60;;
57441;SDS011;43284;47.042;15.498;2022-07-29T13:01:53;4.82;;;3.78;;
57441;SDS011;43284;47.042;15.498;2022-07-29T13:04:24;5.70;;;3.78;;
57441;SDS011;43284;47.042;15.498;2022-07-29T13:07:01;12.35;;;3.65;;
57441;SDS011;43284;47.042;15.498;2022-07-29T13:09:40;7.10;;;3.90;;
57441;SDS011;43284;47.042;15.498;2022-07-29T13:12:14;4.60;;;3.30;;
57441;SDS011;43284;47.042;15.498;2022-07-29T13:14:43;7.25;;;3.72;;
57441;SDS011;43284;47.042;15.498;2022-07-29T13:19:48;5.72;;;4.28;;
57441;SDS011;43284;47.042;15.498;2022-07-29T13:22:17;6.65;;;3.75;;
57441;SDS011;43284;47.042;15.498;2022-07-29T13:24:57;8.48;;;3.63;;
57441;SDS011;43284;47.042;15.498;2022-07-29T13:27:33;5.78;;;4.20;;
57441;SDS011;43284;47.042;15.498;2022-07-29T13:30:03;9.23;;;4.35;;
57441;SDS011;43284;47.042;15.498;2022-07-29T13:32:32;7.88;;;3.75;;
57441;SDS011;43284;47.042;15.498;2022-07-29T13:35:04;7.45;;;4.07;;
57441;SDS011;43284;47.042;15.498;2022-07-29T13:37:34;6.05;;;4.10;;
57441;SDS011;43284;47.042;15.498;2022-07-29T13:40:04;6.75;;;3.85;;
57441;SDS011;43284;47.042;15.498;2022-07-29T13:42:34;12.80;;;4.03;;
57441;SDS011;43284;47.042;15.498;2022-07-29T13:45:01;5.50;;;3.72;;
57441;SDS011;43284;47.042;15.498;2022-07-29T13:47:31;7.00;;;3.90;;
57441;SDS011;43284;47.042;15.498;2022-07-29T13:50:01;6.20;;;4.03;;
57441;SDS011;43284;47.042;15.498;2022-07-29T13:52:30;7.18;;;4.15;;
57441;SDS011;43284;47.042;15.498;2022-07-29T13:54:59;6.35;;;4.22;;
57441;SDS011;43284;47.042;15.498;2022-07-29T13:57:27;5.60;;;4.10;;
57441;SDS011;43284;47.042;15.498;2022-07-29T13:59:55;5.35;;;3.88;;
57441;SDS011;43284;47.042;15.498;2022-07-29T14:02:22;7.22;;;3.90;;
57441;SDS011;43284;47.042;15.498;2022-07-29T14:04:50;7.47;;;3.83;;
57441;SDS011;43284;47.042;15.498;2022-07-29T14:07:17;4.93;;;3.80;;
57441;SDS011;43284;47.042;15.498;2022-07-29T14:09:44;7.90;;;3.83;;
57441;SDS011;43284;47.042;15.498;2022-07-29T14:12:11;8.40;;;4.00;;
57441;SDS011;43284;47.042;15.498;2022-07-29T14:14:38;10.75;;;4.47;;
57441;SDS011;43284;47.042;15.498;2022-07-29T14:17:05;5.72;;;4.07;;
57441;SDS011;43284;47.042;15.498;2022-07-29T14:19:33;9.57;;;4.00;;
57441;SDS011;43284;47.042;15.498;2022-07-29T14:22:05;12.25;;;4.20;;
57441;SDS011;43284;47.042;15.498;2022-07-29T14:24:34;5.50;;;3.80;;
57441;SDS011;43284;47.042;15.498;2022-07-29T14:27:02;5.82;;;4.18;;
57441;SDS011;43284;47.042;15.498;2022-07-29T14:29:30;6.00;;;3.65;;
57441;SDS011;43284;47.042;15.498;2022-07-29T14:32:00;7.05;;;4.15;;
57441;SDS011;43284;47.042;15.498;2022-07-29T14:34:28;4.68;;;3.47;;
57441;SDS011;43284;47.042;15.498;2022-07-29T14:36:55;6.40;;;3.90;;
57441;SDS011;43284;47.042;15.498;2022-07-29T14:39:22;5.03;;;3.97;;
57441;SDS011;43284;47.042;15.498;2022-07-29T14:41:50;8.02;;;4.03;;
57441;SDS011;43284;47.042;15.498;2022-07-29T14:44:17;8.55;;;4.68;;
57441;SDS011;43284;47.042;15.498;2022-07-29T14:46:45;8.18;;;4.32;;
57441;SDS011;43284;47.042;15.498;2022-07-29T14:49:13;4.40;;;3.75;;
57441;SDS011;43284;47.042;15.498;2022-07-29T14:51:40;4.63;;;3.85;;
57441;SDS011;43284;47.042;15.498;2022-07-29T14:54:08;6.32;;;3.95;;
57441;SDS011;43284;47.042;15.498;2022-07-29T14:56:35;7.18;;;5.05;;
57441;SDS011;43284;47.042;15.498;2022-07-29T14:59:02;7.82;;;4.25;;
57441;SDS011;43284;47.042;15.498;2022-07-29T15:01:30;6.18;;;3.95;;
57441;SDS011;43284;47.042;15.498;2022-07-29T15:03:57;6.07;;;3.97;;
57441;SDS011;43284;47.042;15.498;2022-07-29T15:06:25;5.47;;;3.60;;
57441;SDS011;43284;47.042;15.498;2022-07-29T15:08:52;9.05;;;4.75;;
57441;SDS011;43284;47.042;15.498;2022-07-29T15:11:19;8.05;;;3.80;;
57441;SDS011;43284;47.042;15.498;2022-07-29T15:13:47;6.95;;;3.90;;
57441;SDS011;43284;47.042;15.498;2022-07-29T15:16:15;5.65;;;4.13;;
57441;SDS011;43284;47.042;15.498;2022-07-29T15:18:46;6.10;;;4.00;;
57441;SDS011;43284;47.042;15.498;2022-07-29T15:21:14;7.47;;;3.72;;
57441;SDS011;43284;47.042;15.498;2022-07-29T15:23:41;4.35;;;3.60;;
57441;SDS011;43284;47.042;15.498;2022-07-29T15:26:08;7.25;;;4.15;;
57441;SDS011;43284;47.042;15.498;2022-07-29T15:28:35;5.85;;;4.25;;
57441;SDS011;43284;47.042;15.498;2022-07-29T15:31:03;3.95;;;3.38;;
57441;SDS011;43284;47.042;15.498;2022-07-29T15:33:30;5.70;;;4.05;;
57441;SDS011;43284;47.042;15.498;2022-07-29T15:35:57;7.25;;;3.80;;
57441;SDS011;43284;47.042;15.498;2022-07-29T15:38:25;6.18;;;3.60;;
57441;SDS011;43284;47.042;15.498;2022-07-29T15:40:53;4.63;;;3.95;;
57441;SDS011;43284;47.042;15.498;2022-07-29T15:43:20;5.03;;;3.90;;
57441;SDS011;43284;47.042;15.498;2022-07-29T15:45:48;6.32;;;3.70;;
57441;SDS011;43284;47.042;15.498;2022-07-29T15:48:37;3.97;;;3.17;;
57441;SDS011;43284;47.042;15.498;2022-07-29T15:51:06;4.00;;;3.60;;
57441;SDS011;43284;47.042;15.498;2022-07-29T15:53:34;4.68;;;3.83;;
57441;SDS011;43284;47.042;15.498;2022-07-29T15:56:01;6.13;;;3.50;;
57441;SDS011;43284;47.042;15.498;2022-07-29T15:58:29;7.07;;;3.55;;